ICAO code: LHPR | IATA code: QGY | AFTN: LHPRZPZX | english | deutsch
Időjárás: 2019-03-19 18:40 (UTC) | Hőmérséklet: 2.1 °C | QNH: 1027.5 hPa | Szél: 3.8 m/s | Részletek
Live ATC LHPR
Webkameránk élőképe

Győr-Pér Repülőtér időjárás adatok

Metar:
METAR LHPR 191815Z AUTO 34008KT CAVOK 05/M04 Q1027


Taf:
TAF LHPR 191715Z 1918/2003 34010KT CAVOK
BECMG 1923/2002 34005KT


Jelenidő:
Nem volt érdemleges időjárási jelenség az elmúlt órában
Időbélyeg: 2019-03-19 18:40:00 UTC
Hőmérséklet:
2.1 °C
 
Harmatpont:
-3.8 °C
 
Rel. páratartalom:
65%
 
QNH:
1027.5 hPa
 
Szélsebesség:
3.8 m/s
Max:
3.9 m/s
Szélirány:
290°
 
Csapadék (1 óra):
0.0 mm
 
Látótávolság:
20000 m
 
RVR:
>1500 m RWY30
 
1. felhőréteg mennyisége:
1 octa
 
1. felhőréteg alapja:
4160 m


Az adatokat szolgáltatja
az Országos Meteorológiai Szolgálat
Győr-Pér Repülőtér | H 9099 Pér, Repülőtér | Tel: +36/96/559-200 | Fax: +36/96/559-202

ICAO code: LHPR | IATA code: QGY | AFTN: LHPRZPZX


weboldal tervezés: IRQ